• Join FlightAware (Why Join?)
  • Login
  • US Flag 
07:28PM EDT


 

Airport Tracker/Info


-or-


 

Live Flight TrackerFlight Track Log ✈ N83WD ✈ 26-Sep-2013 ✈ KFTW - KDTN

Flight Track Log - Related Links

Times and Time Zones

All times are in EDT time to prevent confusion due to time zone crossing. See the N83WD flight status page for this flight to view local times or setup timezone preferences in your user account.

Time Position Orientation Groundspeed Altitude Reporting Facility
EDT Latitude Longitude Course Direction KTS MPH feet Rate Location/Type
05:44PM 32.5681 -96.3508 88° East 178 205 4,100  Level Fort Worth Center
05:45PM 32.5694 -96.2892 88° East 189 217 4,800 600 Climbing Fort Worth Center
05:46PM 32.5711 -96.2375 88° East 170 196 5,300 600 Climbing Fort Worth Center
05:47PM 32.5706 -96.1881 91° East 154 177 6,100 660 Climbing Fort Worth Center
05:48PM 32.5681 -96.1364 93° East 154 177 6,700 600 Climbing Fort Worth Center
05:49PM 32.5675 -96.0772 91° East 160 184 7,300 540 Climbing Fort Worth Center
05:50PM 32.5647 -96.0183 93° East 168 193 7,800 660 Climbing Fort Worth Center
05:51PM 32.5619 -95.9567 93° East 176 203 8,700 660 Climbing Fort Worth Center
05:52PM 32.5614 -95.9000 91° East 176 203 9,200 240 Climbing Fort Worth Center
05:53PM 32.5583 -95.8383 93° East 182 209 9,200  Level Fort Worth Center
05:54PM 32.5575 -95.7742 91° East 187 215 9,300 120 Climbing Fort Worth Center
05:55PM 32.5547 -95.7103 93° East 192 221 9,500  Climbing Fort Worth Center
05:56PM 32.5539 -95.6436 91° East 192 221 9,300 -120 Descending Fort Worth Center
05:57PM 32.5486 -95.5847 96° East 199 229 9,300  Level Fort Worth Center
05:58PM 32.5456 -95.5183 93° East 199 229 9,400  Climbing Fort Worth Center
05:59PM 32.5467 -95.4492 89° East 199 229 9,400  Level Fort Worth Center
06:00PM 32.5436 -95.3875 93° East 194 223 9,400  Level Fort Worth Center
06:01PM 32.5447 -95.3211 89° East 194 223 9,400  Level Fort Worth Center
06:02PM 32.5394 -95.2522 95° East 200 230 9,500  Climbing Fort Worth Center
06:03PM 32.5422 -95.1831 87° East 200 230 9,500  Level Fort Worth Center
06:04PM 32.5411 -95.1192 91° East 194 223 9,500 -60 Level Fort Worth Center
06:05PM 32.5419 -95.0525 89° East 194 223 9,400 -120 Descending Fort Worth Center
06:06PM 32.5428 -94.9836 89° East 199 229 9,300 60 Descending Fort Worth Center
06:07PM 32.5436 -94.9194 89° East 199 229 9,600 60 Climbing Fort Worth Center
06:08PM 32.5422 -94.8528 91° East 193 222 9,500 -180 Descending Fort Worth Center
06:09PM 32.5408 -94.7889 91° East 193 222 9,300 -120 Descending Fort Worth Center
06:10PM 32.5394 -94.7175 91° East 198 228 9,300  Level Fort Worth Center
06:11PM 32.5422 -94.6508 87° East 193 222 9,300 60 Level Fort Worth Center
06:12PM 32.5369 -94.6067 98° East 198 228 9,500 120 Climbing Fort Worth Center
06:13PM 32.5361 -94.5647 91° East 197 227 9,500  Level Fort Worth Center
06:14PM 32.5283 -94.4986 98° East 200 230 9,600  Climbing Fort Worth Center
06:15PM 32.5286 -94.4244 90° East 198 228 9,600 -360 Level Fort Worth Center
06:16PM 32.5331 -94.3531 86° East 212 244 8,900 -840 Descending Fort Worth Center
06:17PM 32.5294 -94.2892 94° East 221 254 8,100 -720 Descending Fort Worth Center
06:18PM 32.5217 -94.2278 99° East 208 239 7,600 -780 Descending Fort Worth Center
06:19PM 32.5242 -94.1586 88° East 208 239 6,700 -900 Descending Fort Worth Center
06:20PM 32.5283 -94.0847 86° East 203 234 5,800 -900 Descending Fort Worth Center
06:21PM 32.5372 -94.0228 80° East 194 223 4,800 -1,080 Descending Fort Worth Center
06:22PM 32.5481 -93.9583 79° East 199 229 3,700 -1,140 Descending Fort Worth Center
06:23PM 32.5589 -93.9011 77° East 193 222 2,700 -960 Descending Fort Worth Center
06:24PM 32.5722 -93.8489 73° East 172 198 1,900 -720 Descending Fort Worth Center
06:25PM 32.5728 -93.7969 89° East 122 140 1,200 -720 Descending Fort Worth Center
06:26PM 32.5528 -93.7608 123° Southeast 119 137 400 -720 Descending Fort Worth Center
06:28PM 32.5402 -93.7450 90° East  Level Estimated
06:35PM 32.5402 -93.7450 90° East  Level Estimated